createdAt,value
2022-11-16T00:00:16.558Z,2.83
2022-11-16T00:02:44.513Z,2.83
2022-11-16T00:05:18.000Z,3.13
2022-11-16T00:07:50.598Z,2.95
2022-11-16T00:10:22.449Z,2.70
2022-11-16T00:12:50.070Z,3.15
2022-11-16T00:15:17.447Z,2.80
2022-11-16T00:17:44.784Z,2.95
2022-11-16T00:20:12.532Z,3.00
2022-11-16T00:22:42.057Z,2.70
2022-11-16T00:25:09.664Z,2.70
2022-11-16T00:27:38.223Z,2.83
2022-11-16T00:30:06.048Z,2.88
2022-11-16T00:32:34.379Z,2.45
2022-11-16T00:35:07.513Z,2.20
2022-11-16T00:37:35.212Z,2.60
2022-11-16T00:40:07.147Z,2.83
2022-11-16T00:42:35.171Z,2.90
2022-11-16T00:45:02.887Z,2.70
2022-11-16T00:47:30.171Z,2.78
2022-11-16T00:50:03.579Z,2.63
2022-11-16T00:52:31.239Z,2.70
2022-11-16T00:55:18.650Z,2.90
2022-11-16T00:57:48.973Z,2.30
2022-11-16T01:00:17.773Z,2.90
2022-11-16T01:02:47.666Z,2.40
2022-11-16T01:05:16.269Z,2.88
2022-11-16T01:07:43.866Z,2.92
2022-11-16T01:10:13.792Z,2.67
2022-11-16T01:12:41.423Z,3.10
2022-11-16T01:15:12.129Z,2.33
2022-11-16T01:17:40.907Z,2.70
2022-11-16T01:20:15.550Z,2.70
2022-11-16T01:25:11.837Z,2.47
2022-11-16T01:27:40.067Z,2.70
2022-11-16T01:30:08.727Z,2.85
2022-11-16T01:32:38.024Z,3.08
2022-11-16T01:35:09.440Z,2.40
2022-11-16T01:37:37.030Z,2.50
2022-11-16T01:40:04.574Z,2.72
2022-11-16T01:42:33.695Z,2.45
2022-11-16T01:45:01.206Z,2.90
2022-11-16T01:47:28.922Z,2.58
2022-11-16T01:49:59.338Z,2.55
2022-11-16T01:52:29.769Z,2.60
2022-11-16T01:54:57.199Z,2.60
2022-11-16T01:57:26.984Z,2.63
2022-11-16T02:00:09.530Z,2.63
2022-11-16T02:02:38.201Z,2.42
2022-11-16T02:05:07.578Z,2.13
2022-11-16T02:07:55.336Z,2.40
2022-11-16T02:10:32.537Z,2.85
2022-11-16T02:13:03.116Z,3.05
2022-11-16T02:15:33.693Z,2.55
2022-11-16T02:18:19.863Z,2.60
2022-11-16T02:20:59.590Z,2.97
2022-11-16T02:23:48.025Z,2.45
2022-11-16T02:26:23.876Z,2.30
2022-11-16T02:29:12.088Z,2.63
2022-11-16T02:31:43.507Z,2.60
2022-11-16T02:34:12.105Z,3.10
2022-11-16T02:36:41.738Z,2.63
2022-11-16T02:39:12.375Z,2.55
2022-11-16T02:41:45.606Z,2.53
2022-11-16T02:44:19.268Z,3.58
2022-11-16T02:46:52.821Z,2.50
2022-11-16T02:49:20.578Z,2.30
2022-11-16T02:51:48.532Z,2.13
2022-11-16T02:54:26.101Z,2.10
2022-11-16T02:57:00.967Z,2.75
2022-11-16T02:59:34.642Z,2.72
2022-11-16T03:02:16.342Z,3.00
2022-11-16T03:04:46.546Z,2.50
2022-11-16T03:07:19.205Z,2.90
2022-11-16T03:09:48.302Z,2.65
2022-11-16T03:12:19.536Z,2.45
2022-11-16T03:14:55.488Z,2.85
2022-11-16T03:17:28.017Z,3.15
2022-11-16T03:20:05.429Z,2.63
2022-11-16T03:22:40.938Z,3.30
2022-11-16T03:25:13.620Z,2.60
2022-11-16T03:27:46.497Z,2.80
2022-11-16T03:30:17.353Z,3.20
2022-11-16T03:32:54.188Z,3.28
2022-11-16T03:35:28.954Z,3.88
2022-11-16T03:38:00.369Z,3.28
2022-11-16T03:40:29.891Z,3.83
2022-11-16T03:42:57.511Z,3.08
2022-11-16T03:45:29.042Z,3.42
2022-11-16T03:48:01.366Z,3.50
2022-11-16T03:50:29.172Z,3.08
2022-11-16T03:52:56.810Z,3.60
2022-11-16T03:55:24.244Z,3.15
2022-11-16T03:57:51.591Z,3.38
2022-11-16T04:00:19.275Z,3.45
2022-11-16T04:02:46.888Z,3.38
2022-11-16T04:05:32.780Z,3.90
2022-11-16T04:08:19.087Z,4.38
2022-11-16T04:11:05.370Z,3.95
2022-11-16T04:13:52.776Z,3.67
2022-11-16T04:16:39.357Z,4.55
2022-11-16T04:19:28.142Z,4.82
2022-11-16T04:22:20.629Z,4.03
2022-11-16T04:24:50.385Z,4.70
2022-11-16T04:27:50.153Z,4.25
2022-11-16T04:30:18.000Z,3.95
2022-11-16T04:33:05.650Z,4.43
2022-11-16T04:35:53.997Z,3.95
2022-11-16T04:38:21.345Z,4.10
2022-11-16T04:40:58.638Z,3.97
2022-11-16T04:43:30.445Z,4.13
2022-11-16T04:46:17.428Z,4.88
2022-11-16T04:48:54.558Z,4.53
2022-11-16T04:51:24.265Z,6.00
2022-11-16T04:53:58.919Z,5.70
2022-11-16T04:56:26.456Z,6.30
2022-11-16T04:58:57.184Z,4.93
2022-11-16T05:01:45.884Z,6.18
2022-11-16T05:04:14.308Z,4.10
2022-11-16T05:06:41.723Z,4.28
2022-11-16T05:09:09.606Z,3.65
2022-11-16T05:11:36.935Z,3.38
2022-11-16T05:14:06.742Z,3.70
2022-11-16T05:16:40.837Z,3.90
2022-11-16T05:19:37.854Z,3.78
2022-11-16T05:22:08.105Z,3.75
2022-11-16T05:24:35.939Z,3.35
2022-11-16T05:27:04.392Z,4.25
2022-11-16T05:29:31.829Z,3.85
2022-11-16T05:32:07.568Z,5.07
2022-11-16T05:34:39.154Z,4.28
2022-11-16T05:37:06.661Z,4.13
2022-11-16T05:39:34.662Z,3.83
2022-11-16T05:42:06.897Z,4.05
2022-11-16T05:44:38.334Z,4.43
2022-11-16T05:47:05.765Z,3.58
2022-11-16T05:49:34.172Z,4.30
2022-11-16T05:52:01.816Z,3.80
2022-11-16T05:54:29.178Z,4.03
2022-11-16T05:56:57.275Z,3.75
2022-11-16T05:59:26.066Z,4.10
2022-11-16T06:01:55.076Z,4.40
2022-11-16T06:04:24.460Z,5.43
2022-11-16T06:06:52.677Z,4.05
2022-11-16T06:09:20.222Z,5.93
2022-11-16T06:11:47.637Z,4.95
2022-11-16T06:14:15.923Z,4.70
2022-11-16T06:16:44.061Z,4.95
2022-11-16T06:19:15.260Z,4.38
2022-11-16T06:21:42.851Z,4.70
2022-11-16T06:24:12.074Z,5.75
2022-11-16T06:26:39.784Z,10.57
2022-11-16T06:29:08.080Z,12.20
2022-11-16T06:31:35.906Z,9.45
2022-11-16T06:34:03.309Z,8.05
2022-11-16T06:36:30.835Z,6.43
2022-11-16T06:39:11.521Z,6.28
2022-11-16T06:41:41.526Z,5.75
2022-11-16T06:44:09.954Z,5.70
2022-11-16T06:46:40.880Z,5.57
2022-11-16T06:49:08.232Z,5.57
2022-11-16T06:51:42.542Z,6.13
2022-11-16T06:54:09.937Z,7.07
2022-11-16T06:59:37.175Z,5.82
2022-11-16T07:02:12.873Z,6.65
2022-11-16T07:04:40.827Z,5.75
2022-11-16T07:07:08.298Z,5.80
2022-11-16T07:09:36.272Z,7.35
2022-11-16T07:12:03.927Z,7.38
2022-11-16T07:14:31.309Z,7.28
2022-11-16T07:17:09.662Z,8.48
2022-11-16T07:19:38.451Z,7.25
2022-11-16T07:22:05.838Z,7.38
2022-11-16T07:24:38.524Z,6.00
2022-11-16T07:27:06.106Z,5.60
2022-11-16T07:29:46.303Z,6.53
2022-11-16T07:32:17.007Z,5.25
2022-11-16T07:34:45.385Z,5.38
2022-11-16T07:37:30.422Z,6.22
2022-11-16T07:40:16.070Z,6.85
2022-11-16T07:42:45.934Z,5.45
2022-11-16T07:45:28.057Z,5.32
2022-11-16T07:47:55.626Z,5.90
2022-11-16T07:50:23.962Z,5.20
2022-11-16T07:53:07.235Z,5.35
2022-11-16T07:55:36.145Z,5.22
2022-11-16T07:58:03.601Z,5.20
2022-11-16T08:00:52.268Z,5.22
2022-11-16T08:03:24.879Z,6.00
2022-11-16T08:05:59.693Z,5.40
2022-11-16T08:08:27.136Z,6.38
2022-11-16T08:11:00.438Z,5.10
2022-11-16T08:13:28.105Z,6.50
2022-11-16T08:15:58.141Z,5.18
2022-11-16T08:18:25.903Z,5.15
2022-11-16T08:20:55.579Z,4.90
2022-11-16T08:23:24.904Z,4.82
2022-11-16T08:26:13.444Z,5.60
2022-11-16T08:28:42.218Z,5.00
2022-11-16T08:31:10.767Z,5.65
2022-11-16T08:33:38.141Z,5.25
2022-11-16T08:36:12.524Z,7.53
2022-11-16T08:38:41.840Z,9.15
2022-11-16T08:41:09.291Z,8.63
2022-11-16T08:43:51.415Z,7.88
2022-11-16T08:46:21.520Z,12.00
2022-11-16T08:48:49.851Z,8.15
2022-11-16T08:51:21.199Z,8.43
2022-11-16T08:53:49.876Z,10.65
2022-11-16T08:56:19.002Z,12.98
2022-11-16T08:59:03.961Z,12.43
2022-11-16T09:01:33.059Z,11.70
2022-11-16T09:04:00.874Z,11.63
2022-11-16T09:06:28.727Z,11.27
2022-11-16T09:08:57.934Z,11.85
2022-11-16T09:11:30.285Z,12.57
2022-11-16T09:13:59.200Z,14.60
2022-11-16T09:16:28.071Z,15.32
2022-11-16T09:19:00.564Z,16.70
2022-11-16T09:21:29.402Z,15.15
2022-11-16T09:23:57.862Z,18.13
2022-11-16T09:26:26.443Z,19.13
2022-11-16T09:28:55.934Z,18.15
2022-11-16T09:31:36.183Z,19.10
2022-11-16T09:34:04.361Z,17.63
2022-11-16T09:36:32.055Z,18.35
2022-11-16T09:39:29.627Z,17.88
2022-11-16T09:42:10.258Z,18.00
2022-11-16T09:44:38.066Z,19.58
2022-11-16T09:47:31.932Z,16.77
2022-11-16T09:50:03.987Z,17.75
2022-11-16T09:52:38.077Z,15.25
2022-11-16T09:55:18.148Z,15.70
2022-11-16T09:57:46.365Z,16.05
2022-11-16T10:00:18.444Z,16.73
2022-11-16T10:02:49.193Z,16.83
2022-11-16T10:05:26.058Z,18.08
2022-11-16T10:07:56.243Z,17.10
2022-11-16T10:10:29.257Z,16.73
2022-11-16T10:12:56.621Z,17.38
2022-11-16T10:15:42.990Z,17.52
2022-11-16T10:18:31.878Z,15.20
2022-11-16T10:20:59.303Z,14.68
2022-11-16T10:23:26.888Z,14.43
2022-11-16T10:25:59.334Z,13.35
2022-11-16T10:28:26.745Z,12.70
2022-11-16T10:30:57.224Z,13.00
2022-11-16T10:33:26.452Z,13.32
2022-11-16T10:35:54.617Z,14.10
2022-11-16T10:38:23.431Z,15.30
2022-11-16T10:40:54.224Z,15.18
2022-11-16T10:43:24.231Z,14.57
2022-11-16T10:45:56.079Z,14.35
2022-11-16T10:48:37.721Z,16.35
2022-11-16T10:51:05.586Z,14.27
2022-11-16T10:53:35.926Z,13.85
2022-11-16T10:56:18.502Z,13.95
2022-11-16T10:59:02.286Z,12.68
2022-11-16T11:01:37.785Z,12.38
2022-11-16T11:04:17.663Z,14.10
2022-11-16T11:06:45.595Z,12.50
2022-11-16T11:09:31.779Z,12.50
2022-11-16T11:12:20.573Z,12.10
2022-11-16T11:15:00.379Z,11.75
2022-11-16T11:17:27.961Z,14.95
2022-11-16T11:20:18.678Z,16.88
2022-11-16T11:22:49.081Z,12.73
2022-11-16T11:25:36.653Z,12.98
2022-11-16T11:28:09.041Z,13.98
2022-11-16T11:30:36.746Z,13.35
2022-11-16T11:33:10.539Z,15.32
2022-11-16T11:35:37.927Z,14.27
2022-11-16T11:38:08.362Z,14.57
2022-11-16T11:40:36.367Z,14.75
2022-11-16T11:43:05.138Z,15.43
2022-11-16T11:45:35.517Z,15.95
2022-11-16T11:48:04.140Z,15.00
2022-11-16T11:50:34.652Z,14.00
2022-11-16T11:53:02.252Z,14.68
2022-11-16T11:55:29.837Z,13.90
2022-11-16T11:57:57.688Z,15.70
2022-11-16T12:00:26.255Z,18.17
2022-11-16T12:02:59.766Z,18.02
2022-11-16T12:05:27.116Z,15.70
2022-11-16T12:08:03.506Z,14.85
2022-11-16T12:10:43.272Z,17.23
2022-11-16T12:13:31.544Z,16.80
2022-11-16T12:16:22.372Z,17.33
2022-11-16T12:19:09.934Z,15.32
2022-11-16T12:21:40.358Z,16.05
2022-11-16T12:24:26.653Z,16.02
2022-11-16T12:27:10.711Z,15.38
2022-11-16T12:29:57.057Z,14.07
2022-11-16T12:32:43.226Z,21.33
2022-11-16T12:35:16.907Z,19.20
2022-11-16T12:37:44.208Z,14.23
2022-11-16T12:40:35.951Z,13.77
2022-11-16T12:43:03.276Z,14.00
2022-11-16T12:45:33.516Z,16.38
2022-11-16T12:48:13.214Z,15.38
2022-11-16T12:50:59.277Z,13.88
2022-11-16T12:53:26.544Z,14.10
2022-11-16T12:55:59.905Z,15.77
2022-11-16T12:58:39.425Z,16.65
2022-11-16T13:01:06.921Z,14.55
2022-11-16T13:03:39.637Z,15.07
2022-11-16T13:06:17.697Z,15.45
2022-11-16T13:08:45.011Z,15.32
2022-11-16T13:11:12.841Z,17.10
2022-11-16T13:13:40.528Z,15.05
2022-11-16T13:16:08.281Z,15.38
2022-11-16T13:18:36.581Z,15.73
2022-11-16T13:21:08.000Z,15.40
2022-11-16T13:24:00.450Z,16.33
2022-11-16T13:26:42.708Z,15.60
2022-11-16T13:29:15.969Z,16.92
2022-11-16T13:31:46.478Z,16.13
2022-11-16T13:34:22.903Z,15.20
2022-11-16T13:36:50.354Z,17.40
2022-11-16T13:39:22.713Z,16.42
2022-11-16T13:41:51.461Z,15.70
2022-11-16T13:44:21.682Z,14.50
2022-11-16T13:46:56.261Z,14.93
2022-11-16T13:51:56.470Z,14.35
2022-11-16T13:54:45.202Z,13.50
2022-11-16T13:57:28.774Z,14.82
2022-11-16T14:00:02.005Z,15.82
2022-11-16T14:02:31.013Z,15.18
2022-11-16T14:04:59.843Z,16.10
2022-11-16T14:07:34.827Z,14.90
2022-11-16T14:10:05.686Z,15.57
2022-11-16T14:12:38.954Z,14.25
2022-11-16T14:15:23.041Z,12.88
2022-11-16T14:18:10.795Z,13.20
2022-11-16T14:20:38.178Z,15.93
2022-11-16T14:23:28.820Z,16.67
2022-11-16T14:26:15.045Z,15.68
2022-11-16T14:28:42.543Z,16.25
2022-11-16T14:31:10.108Z,15.15
2022-11-16T14:33:38.484Z,15.90
2022-11-16T14:36:08.168Z,16.02
2022-11-16T14:38:35.589Z,16.08
2022-11-16T14:41:04.159Z,15.65
2022-11-16T14:43:45.875Z,17.25
2022-11-16T14:46:34.861Z,14.38
2022-11-16T14:49:02.863Z,19.73
2022-11-16T14:51:37.642Z,18.15
2022-11-16T14:54:25.402Z,18.20
2022-11-16T14:56:57.218Z,16.08
2022-11-16T14:59:24.956Z,15.60
2022-11-16T15:01:53.157Z,16.80
2022-11-16T15:04:21.753Z,14.57
2022-11-16T15:07:05.626Z,17.75
2022-11-16T15:09:39.505Z,16.60
2022-11-16T15:12:31.130Z,17.90
2022-11-16T15:15:01.457Z,16.52
2022-11-16T15:17:33.277Z,18.98
2022-11-16T15:20:02.546Z,20.42
2022-11-16T15:22:31.566Z,21.38
2022-11-16T15:25:02.515Z,19.58
2022-11-16T15:27:29.774Z,19.55
2022-11-16T15:29:57.922Z,21.30
2022-11-16T15:32:25.397Z,21.65
2022-11-16T15:34:54.173Z,18.88
2022-11-16T15:37:28.361Z,22.05
2022-11-16T15:39:56.568Z,22.05
2022-11-16T15:42:24.709Z,19.83
2022-11-16T15:44:52.843Z,21.52
2022-11-16T15:47:20.805Z,20.85
2022-11-16T15:49:53.220Z,20.55
2022-11-16T15:52:39.492Z,18.90
2022-11-16T15:55:06.972Z,21.25
2022-11-16T15:57:34.498Z,20.95
2022-11-16T16:00:01.868Z,21.15
2022-11-16T16:02:31.161Z,20.58
2022-11-16T16:04:58.581Z,21.85
2022-11-16T16:07:42.725Z,22.60
2022-11-16T16:10:28.321Z,22.48
2022-11-16T16:12:56.611Z,20.05
2022-11-16T16:15:25.400Z,21.40
2022-11-16T16:17:54.160Z,21.45
2022-11-16T16:20:22.907Z,20.65
2022-11-16T16:22:50.664Z,19.75
2022-11-16T16:25:31.875Z,20.63
2022-11-16T16:27:59.409Z,19.83
2022-11-16T16:30:27.321Z,21.77
2022-11-16T16:32:54.893Z,20.40
2022-11-16T16:35:24.264Z,21.75
2022-11-16T16:38:03.637Z,22.27
2022-11-16T16:40:31.037Z,20.48
2022-11-16T16:42:58.793Z,20.75
2022-11-16T16:45:29.222Z,21.10
2022-11-16T16:47:56.741Z,20.58
2022-11-16T16:50:24.327Z,22.15
2022-11-16T16:52:51.852Z,19.92
2022-11-16T16:55:21.583Z,22.00
2022-11-16T16:57:51.871Z,20.20
2022-11-16T17:00:19.325Z,20.80
2022-11-16T17:02:46.823Z,20.63
2022-11-16T17:05:14.189Z,18.77
2022-11-16T17:07:42.196Z,18.85
2022-11-16T17:10:09.741Z,18.90
2022-11-16T17:12:37.122Z,18.90
2022-11-16T17:15:04.807Z,18.00
2022-11-16T17:17:32.519Z,18.90
2022-11-16T17:20:00.176Z,17.48
2022-11-16T17:22:27.845Z,17.63
2022-11-16T17:24:55.116Z,17.70
2022-11-16T17:27:25.131Z,17.27
2022-11-16T17:29:52.772Z,15.82
2022-11-16T17:32:20.218Z,16.23
2022-11-16T17:34:47.691Z,15.73
2022-11-16T17:37:15.038Z,17.63
2022-11-16T17:39:42.505Z,16.80
2022-11-16T17:42:09.927Z,16.67
2022-11-16T17:44:37.405Z,16.55
2022-11-16T17:47:04.928Z,17.08
2022-11-16T17:49:32.306Z,16.92
2022-11-16T17:52:00.099Z,15.27
2022-11-16T17:54:27.482Z,14.48
2022-11-16T17:56:54.915Z,14.32
2022-11-16T17:59:27.961Z,13.13
2022-11-16T18:01:59.156Z,13.63
2022-11-16T18:04:26.544Z,14.10
2022-11-16T18:06:54.035Z,13.75
2022-11-16T18:09:21.399Z,14.75
2022-11-16T18:11:48.717Z,13.63
2022-11-16T18:14:16.151Z,13.32
2022-11-16T18:16:44.524Z,13.30
2022-11-16T18:19:16.239Z,11.25
2022-11-16T18:21:43.696Z,13.50
2022-11-16T18:24:11.375Z,12.88
2022-11-16T18:26:40.386Z,14.60
2022-11-16T18:29:09.561Z,14.27
2022-11-16T18:31:37.166Z,12.82
2022-11-16T18:34:04.644Z,12.07
2022-11-16T18:36:32.048Z,13.05
2022-11-16T18:39:00.286Z,12.70
2022-11-16T18:41:29.590Z,11.65
2022-11-16T18:44:00.907Z,11.35
2022-11-16T18:46:29.477Z,12.23
2022-11-16T18:48:57.543Z,11.38
2022-11-16T18:51:26.429Z,12.68
2022-11-16T18:53:53.782Z,11.55
2022-11-16T18:56:21.251Z,13.48
2022-11-16T18:58:51.911Z,12.07
2022-11-16T19:01:20.950Z,12.27
2022-11-16T19:03:51.514Z,12.77
2022-11-16T19:06:19.117Z,13.10
2022-11-16T19:08:53.688Z,10.63
2022-11-16T19:11:22.578Z,11.00
2022-11-16T19:13:53.169Z,12.07
2022-11-16T19:16:20.589Z,11.82
2022-11-16T19:18:48.598Z,11.35
2022-11-16T19:21:18.577Z,10.75
2022-11-16T19:23:47.076Z,11.57
2022-11-16T19:26:15.419Z,10.65
2022-11-16T19:28:46.054Z,10.82
2022-11-16T19:31:21.472Z,16.98
2022-11-16T19:33:48.887Z,11.20
2022-11-16T19:36:17.575Z,12.25
2022-11-16T19:38:45.596Z,13.40
2022-11-16T19:41:13.755Z,12.85
2022-11-16T19:43:41.615Z,11.90
2022-11-16T19:46:10.371Z,12.07
2022-11-16T19:48:38.134Z,12.02
2022-11-16T19:51:06.488Z,14.73
2022-11-16T19:53:35.769Z,13.57
2022-11-16T19:56:03.825Z,13.35
2022-11-16T19:58:32.193Z,13.02
2022-11-16T20:01:07.188Z,11.50
2022-11-16T20:03:35.210Z,12.65
2022-11-16T20:06:10.678Z,11.25
2022-11-16T20:11:15.373Z,12.10
2022-11-16T20:13:42.735Z,13.00
2022-11-16T20:16:11.511Z,13.88
2022-11-16T20:18:39.495Z,12.32
2022-11-16T20:21:07.333Z,12.18
2022-11-16T20:23:35.272Z,12.52
2022-11-16T20:26:07.221Z,12.70
2022-11-16T20:28:35.558Z,13.13
2022-11-16T20:31:05.485Z,13.02
2022-11-16T20:33:36.410Z,13.23
2022-11-16T20:36:04.919Z,13.10
2022-11-16T20:38:35.722Z,12.85
2022-11-16T20:41:10.306Z,13.43
2022-11-16T20:43:39.419Z,12.05
2022-11-16T20:46:14.381Z,12.48
2022-11-16T20:48:48.836Z,10.98
2022-11-16T20:51:17.378Z,12.53
2022-11-16T20:53:45.328Z,12.07
2022-11-16T20:56:13.162Z,12.38
2022-11-16T20:58:40.812Z,11.25
2022-11-16T21:01:09.591Z,12.43
2022-11-16T21:03:37.518Z,11.95
2022-11-16T21:06:08.566Z,12.55
2022-11-16T21:08:36.683Z,12.27
2022-11-16T21:11:10.124Z,11.40
2022-11-16T21:13:56.035Z,12.63
2022-11-16T21:16:23.565Z,11.40
2022-11-16T21:18:50.898Z,11.77
2022-11-16T21:21:18.265Z,13.23
2022-11-16T21:23:51.589Z,13.85
2022-11-16T21:26:20.764Z,13.27
2022-11-16T21:28:48.419Z,12.93
2022-11-16T21:31:17.157Z,12.07
2022-11-16T21:33:45.360Z,11.82
2022-11-16T21:36:13.852Z,12.27
2022-11-16T21:38:41.249Z,13.20
2022-11-16T21:41:09.607Z,13.65
2022-11-16T21:43:37.590Z,12.82
2022-11-16T21:46:06.273Z,13.57
2022-11-16T21:48:34.480Z,14.02
2022-11-16T21:51:03.145Z,13.48
2022-11-16T21:53:30.747Z,13.07
2022-11-16T21:55:58.316Z,12.77
2022-11-16T21:58:26.098Z,13.35
2022-11-16T22:01:01.157Z,13.13
2022-11-16T22:03:29.670Z,12.70
2022-11-16T22:06:17.123Z,11.50
2022-11-16T22:08:45.117Z,12.15
2022-11-16T22:11:13.247Z,11.85
2022-11-16T22:13:40.771Z,11.57
2022-11-16T22:16:09.172Z,10.40
2022-11-16T22:18:36.808Z,11.57
2022-11-16T22:21:04.395Z,11.30
2022-11-16T22:23:32.106Z,10.52
2022-11-16T22:26:04.331Z,10.05
2022-11-16T22:28:32.752Z,12.68
2022-11-16T22:31:03.711Z,8.77
2022-11-16T22:33:31.484Z,9.43
2022-11-16T22:35:59.006Z,8.52
2022-11-16T22:38:26.815Z,8.02
2022-11-16T22:40:54.948Z,8.02
2022-11-16T22:43:23.768Z,8.05
2022-11-16T22:45:51.111Z,8.73
2022-11-16T22:48:18.759Z,8.43
2022-11-16T22:50:46.082Z,8.13
2022-11-16T22:53:13.645Z,7.38
2022-11-16T22:55:41.213Z,7.32
2022-11-16T22:58:09.941Z,7.65
2022-11-16T23:00:41.847Z,7.35
2022-11-16T23:03:09.763Z,7.28
2022-11-16T23:05:37.111Z,7.10
2022-11-16T23:08:04.513Z,7.10
2022-11-16T23:10:51.723Z,7.78
2022-11-16T23:13:38.108Z,7.38
2022-11-16T23:16:05.650Z,6.40
2022-11-16T23:18:33.011Z,6.78
2022-11-16T23:21:19.156Z,7.20
2022-11-16T23:24:25.358Z,7.95
2022-11-16T23:27:11.275Z,7.85
2022-11-16T23:29:38.604Z,5.65
2022-11-16T23:32:06.166Z,4.88
2022-11-16T23:34:33.570Z,5.57
2022-11-16T23:37:07.533Z,5.88
2022-11-16T23:39:34.862Z,6.00
2022-11-16T23:42:20.795Z,6.18
2022-11-16T23:44:48.124Z,6.30
2022-11-16T23:47:15.567Z,6.38
2022-11-16T23:49:42.932Z,6.55
2022-11-16T23:52:10.249Z,6.55
2022-11-16T23:54:37.631Z,6.57
2022-11-16T23:57:05.207Z,5.88
2022-11-16T23:59:33.056Z,5.90
